Avioradar koristi kolačiće da bi Vam omogućio jednostavnije i ugodnije korištenje stranice. 

AVIORADAR - Hrvatski zrakoplovni portal

METAR & TAF

[Source: ADDS]
METAR
LDZA 201900Z VRB01KT CAVOK 10/07 Q1015 NOSIG =
LDZA 201725Z 2018/2118 20004KT CAVOK TX18/2113Z TN04/2104Z BECMG 2020/2022 2000 BR PROB40 TEMPO 2023/2106 0200 FG VV001 BECMG 2106/2108 22008KT CAVOK TEMPO 2111/2118 22012KT PROB30 TEMPO 2111/2115 SHRA FEW035TCU LDSP 201900Z 33005KT 9999 FEW050 10/08 Q1016 NOSIG =
LDSP 201725Z 2018/2118 07006KT 9999 SCT040 TX16/2113Z TN08/2104Z PROB30 TEMPO 2020/2023 TS FEW030CB SCT035 BECMG 2110/2112 23008KT PROB30 TEMPO 2111/2114 FEW030TCU BECMG 2116/2118 VRB02KT LDDU 201900Z 08004KT 9999 FEW025 09/06 Q1017 TEMPO -TSRA FEW017CB BKN020 =
LDDU 201725Z 2018/2118 08007KT 9999 BKN020 TX14/2113Z TN08/2103Z PROB40 TEMPO 2019/2101 TS FEW017CB BKN020 BECMG 2110/2112 16010KT PROB40 TEMPO 2111/2115 FEW030TCU BECMG 2116/2118 11006KT LDPL 201900Z 33002KT CAVOK 08/04 Q1016 =
LDPL 201725Z 2018/2118 25005KT CAVOK TX16/2114Z TN05/2105Z BECMG 2110/2112 12008KT PROB30 TEMPO 2111/2115 SHRA FEW030TCU LDZD 201900Z 00000KT CAVOK 09/06 Q1016 =
LDZD 201725Z 2018/2118 32004KT 9999 FEW040 TX17/2112Z TN04/2103Z PROB40 TEMPO 2100/2105 3000 BR MIFG BECMG 2107/2109 19008KT PROB40 TEMPO 2110/2115 24012KT FEW030TCU BECMG 2116/2118 16006KT LDRI 201900Z 12004KT 9999 SCT043 12/05 Q1015 =
LDRI 201725Z 2018/2118 14004KT CAVOK TX16/2113Z TN05/2105Z LDOS 201900Z 24004KT CAVOK 08/07 Q1014 =
LDOS 201725Z 2018/2118 26006KT CAVOK TX17/2112Z TN06/2104Z PROB30 2102/2106 3000 BR PROB40 TEMPO 2110/2116 TSRA FEW045CB
TAF
LDZA 201725Z 2018/2118 20004KT CAVOK TX18/2113Z TN04/2104Z BECMG 2020/2022 2000 BR PROB40 TEMPO 2023/2106 0200 FG VV001 BECMG 2106/2108 22008KT CAVOK TEMPO 2111/2118 22012KT PROB30 TEMPO 2111/2115 SHRA FEW035TCU =
LDSP 201725Z 2018/2118 07006KT 9999 SCT040 TX16/2113Z TN08/2104Z PROB30 TEMPO 2020/2023 TS FEW030CB SCT035 BECMG 2110/2112 23008KT PROB30 TEMPO 2111/2114 FEW030TCU BECMG 2116/2118 VRB02KT =
LDDU 201725Z 2018/2118 08007KT 9999 BKN020 TX14/2113Z TN08/2103Z PROB40 TEMPO 2019/2101 TS FEW017CB BKN020 BECMG 2110/2112 16010KT PROB40 TEMPO 2111/2115 FEW030TCU BECMG 2116/2118 11006KT =
LDPL 201725Z 2018/2118 25005KT CAVOK TX16/2114Z TN05/2105Z BECMG 2110/2112 12008KT PROB30 TEMPO 2111/2115 SHRA FEW030TCU =
LDZD 201725Z 2018/2118 32004KT 9999 FEW040 TX17/2112Z TN04/2103Z PROB40 TEMPO 2100/2105 3000 BR MIFG BECMG 2107/2109 19008KT PROB40 TEMPO 2110/2115 24012KT FEW030TCU BECMG 2116/2118 16006KT =
LDRI 201725Z 2018/2118 14004KT CAVOK TX16/2113Z TN05/2105Z =
LDOS 201725Z 2018/2118 26006KT CAVOK TX17/2112Z TN06/2104Z PROB30 2102/2106 3000 BR PROB40 TEMPO 2110/2116 TSRA FEW045CB =
SR / SS: 03:59 / 17:49 UTC (Zagreb 2021-04-20)